createdAt,value
2019-02-25T00:04:42.807Z,81.40
2019-02-25T00:09:49.152Z,82.50
2019-02-25T00:14:55.572Z,81.50
2019-02-25T00:20:01.984Z,81.50
2019-02-25T00:25:08.985Z,82.30
2019-02-25T00:30:15.532Z,82.70
2019-02-25T00:35:21.742Z,82.00
2019-02-25T00:40:29.254Z,82.80
2019-02-25T00:45:35.954Z,84.00
2019-02-25T00:50:42.163Z,82.80
2019-02-25T00:55:48.352Z,83.20
2019-02-25T01:00:54.696Z,82.40
2019-02-25T01:06:02.641Z,81.70
2019-02-25T01:11:09.048Z,82.40
2019-02-25T01:16:16.562Z,84.60
2019-02-25T01:21:22.780Z,83.50
2019-02-25T01:26:31.382Z,84.90
2019-02-25T01:31:39.549Z,84.90
2019-02-25T01:36:46.092Z,84.20
2019-02-25T01:41:53.413Z,85.10
2019-02-25T01:46:59.840Z,84.90
2019-02-25T01:52:07.970Z,84.50
2019-02-25T01:57:14.409Z,85.90
2019-02-25T02:02:20.737Z,85.40
2019-02-25T02:07:26.929Z,86.20
2019-02-25T02:12:33.715Z,85.60
2019-02-25T02:17:39.983Z,85.50
2019-02-25T02:22:48.028Z,84.70
2019-02-25T02:27:56.667Z,86.50
2019-02-25T02:33:02.952Z,86.50
2019-02-25T02:38:09.748Z,87.70
2019-02-25T02:43:16.053Z,87.20
2019-02-25T02:48:29.165Z,87.90
2019-02-25T02:53:35.479Z,86.50
2019-02-25T02:58:43.905Z,87.30
2019-02-25T03:03:56.834Z,88.20
2019-02-25T03:09:04.743Z,89.30
2019-02-25T03:14:12.652Z,90.30
2019-02-25T03:19:20.383Z,90.00
2019-02-25T03:24:26.783Z,90.00
2019-02-25T03:29:33.082Z,89.30
2019-02-25T03:34:39.375Z,88.70
2019-02-25T03:39:45.679Z,90.00
2019-02-25T03:44:52.831Z,90.60
2019-02-25T03:49:59.036Z,90.30
2019-02-25T03:55:06.469Z,90.20
2019-02-25T04:00:17.738Z,90.30
2019-02-25T04:05:24.289Z,90.50
2019-02-25T04:10:30.540Z,91.20
2019-02-25T04:15:40.577Z,91.50
2019-02-25T04:20:49.836Z,91.70
2019-02-25T04:25:56.152Z,91.30
2019-02-25T04:31:02.431Z,83.40
2019-02-25T04:36:08.663Z,72.40
2019-02-25T04:41:15.980Z,67.20
2019-02-25T04:46:22.390Z,62.60
2019-02-25T04:51:28.632Z,68.90
2019-02-25T04:56:34.843Z,72.00
2019-02-25T05:01:41.184Z,77.00
2019-02-25T05:06:47.388Z,80.10
2019-02-25T05:11:53.740Z,82.20
2019-02-25T05:17:00.355Z,85.50
2019-02-25T05:22:06.730Z,81.40
2019-02-25T05:27:13.048Z,80.80
2019-02-25T05:32:19.355Z,76.00
2019-02-25T05:37:25.840Z,80.80
2019-02-25T05:42:32.031Z,80.90
2019-02-25T05:47:38.249Z,83.50
2019-02-25T05:52:46.216Z,83.30
2019-02-25T05:57:52.624Z,85.60
2019-02-25T06:02:58.947Z,84.90
2019-02-25T06:08:05.528Z,85.00
2019-02-25T06:13:11.827Z,85.60
2019-02-25T06:18:18.324Z,87.70
2019-02-25T06:23:24.570Z,85.60
2019-02-25T06:28:31.382Z,86.70
2019-02-25T06:33:37.630Z,76.90
2019-02-25T06:38:44.265Z,72.70
2019-02-25T06:43:50.492Z,69.70
2019-02-25T06:48:56.695Z,69.10
2019-02-25T06:54:02.947Z,68.80
2019-02-25T06:59:10.257Z,69.50
2019-02-25T07:04:33.756Z,73.80
2019-02-25T07:09:50.092Z,74.20
2019-02-25T07:15:15.320Z,75.50
2019-02-25T07:20:43.377Z,74.20
2019-02-25T07:26:08.643Z,75.80
2019-02-25T07:31:29.645Z,73.50
2019-02-25T07:36:42.610Z,72.00
2019-02-25T07:42:06.445Z,69.80
2019-02-25T07:47:22.193Z,69.50
2019-02-25T07:52:36.084Z,68.80
2019-02-25T07:57:50.992Z,70.50
2019-02-25T08:03:28.664Z,71.20
2019-02-25T08:08:54.670Z,72.80
2019-02-25T08:14:15.380Z,70.10
2019-02-25T08:19:33.020Z,68.10
2019-02-25T08:24:58.376Z,65.30
2019-02-25T08:30:19.803Z,73.10
2019-02-25T08:36:24.257Z,63.10
2019-02-25T08:41:46.201Z,71.30
2019-02-25T08:47:14.527Z,56.70
2019-02-25T08:52:20.792Z,55.50
2019-02-25T08:57:26.992Z,55.50
2019-02-25T09:02:33.290Z,52.50
2019-02-25T09:07:39.596Z,51.10
2019-02-25T09:12:45.894Z,48.70
2019-02-25T09:18:11.210Z,48.30
2019-02-25T09:23:17.541Z,52.00
2019-02-25T09:28:23.808Z,50.50
2019-02-25T09:33:30.065Z,48.50
2019-02-25T09:38:36.395Z,48.40
2019-02-25T09:43:43.049Z,45.50
2019-02-25T09:48:49.550Z,47.30
2019-02-25T09:53:55.798Z,45.50
2019-02-25T09:59:02.031Z,43.20
2019-02-25T10:04:08.872Z,42.90
2019-02-25T10:09:15.342Z,43.40
2019-02-25T10:14:21.720Z,42.80
2019-02-25T10:19:28.961Z,42.10
2019-02-25T10:24:35.207Z,44.10
2019-02-25T10:29:41.469Z,41.00
2019-02-25T10:34:47.734Z,39.60
2019-02-25T10:39:54.103Z,40.00
2019-02-25T10:45:00.344Z,41.10
2019-02-25T10:50:07.436Z,40.50
2019-02-25T10:55:17.784Z,41.00
2019-02-25T11:00:24.119Z,41.00
2019-02-25T11:05:30.837Z,40.50
2019-02-25T11:11:08.301Z,40.60
2019-02-25T11:16:16.436Z,41.70
2019-02-25T11:21:22.825Z,42.60
2019-02-25T11:26:30.627Z,42.10
2019-02-25T11:31:37.158Z,45.00
2019-02-25T11:36:43.707Z,42.40
2019-02-25T11:41:50.001Z,44.30
2019-02-25T11:46:56.431Z,45.70
2019-02-25T11:52:03.707Z,43.20
2019-02-25T11:57:10.006Z,43.80
2019-02-25T12:02:25.252Z,45.00
2019-02-25T12:07:25.990Z,45.10
2019-02-25T12:12:33.375Z,45.90
2019-02-25T12:17:39.749Z,45.70
2019-02-25T12:22:46.353Z,45.60
2019-02-25T12:27:52.807Z,44.80
2019-02-25T12:32:59.081Z,45.30
2019-02-25T12:38:05.832Z,45.50
2019-02-25T12:43:12.417Z,45.80
2019-02-25T12:48:18.965Z,44.90
2019-02-25T12:53:25.341Z,44.70
2019-02-25T12:58:33.003Z,47.00
2019-02-25T13:03:39.846Z,45.60
2019-02-25T13:08:46.110Z,46.10
2019-02-25T13:13:52.582Z,46.30
2019-02-25T13:18:59.048Z,45.20
2019-02-25T13:24:07.484Z,44.50
2019-02-25T13:29:14.961Z,44.20
2019-02-25T13:34:21.262Z,43.60
2019-02-25T13:39:27.744Z,44.20
2019-02-25T13:44:34.085Z,42.80
2019-02-25T13:49:40.417Z,42.70
2019-02-25T13:54:47.095Z,42.60
2019-02-25T13:59:53.367Z,43.40
2019-02-25T14:04:59.626Z,42.40
2019-02-25T14:10:08.924Z,43.20
2019-02-25T14:15:16.033Z,42.90
2019-02-25T14:20:22.733Z,44.10
2019-02-25T14:25:29.197Z,41.70
2019-02-25T14:30:35.880Z,41.90
2019-02-25T14:35:43.536Z,43.70
2019-02-25T14:40:51.359Z,44.70
2019-02-25T14:45:58.935Z,46.10
2019-02-25T14:51:08.670Z,42.00
2019-02-25T14:56:14.440Z,40.70
2019-02-25T15:01:22.684Z,42.90
2019-02-25T15:06:30.014Z,41.70
2019-02-25T15:11:36.920Z,43.00
2019-02-25T15:16:43.348Z,47.50
2019-02-25T15:21:50.449Z,46.20
2019-02-25T15:26:59.862Z,46.00
2019-02-25T15:32:07.003Z,48.00
2019-02-25T15:37:13.992Z,49.50
2019-02-25T15:42:23.820Z,49.00
2019-02-25T15:47:28.654Z,49.10
2019-02-25T15:52:39.973Z,49.00
2019-02-25T15:57:44.162Z,48.80
2019-02-25T16:02:52.274Z,49.80
2019-02-25T16:08:00.633Z,50.60
2019-02-25T16:13:10.998Z,50.10
2019-02-25T16:18:16.095Z,52.10
2019-02-25T16:23:25.788Z,52.80
2019-02-25T16:28:36.190Z,52.10
2019-02-25T16:33:43.329Z,53.40
2019-02-25T16:38:53.174Z,53.90
2019-02-25T16:43:59.537Z,54.80
2019-02-25T16:49:06.381Z,54.60
2019-02-25T16:54:13.570Z,56.10
2019-02-25T16:59:29.949Z,56.50
2019-02-25T17:04:38.344Z,55.60
2019-02-25T17:09:44.705Z,57.80
2019-02-25T17:14:51.044Z,58.30
2019-02-25T17:19:57.460Z,60.10
2019-02-25T17:25:08.177Z,61.00
2019-02-25T17:30:19.601Z,60.50
2019-02-25T17:35:28.853Z,60.50
2019-02-25T17:40:34.934Z,63.00
2019-02-25T17:45:41.262Z,64.10
2019-02-25T17:50:49.056Z,64.40
2019-02-25T17:55:57.238Z,65.00
2019-02-25T18:01:05.749Z,65.80
2019-02-25T18:06:12.546Z,65.30
2019-02-25T18:11:20.188Z,64.90
2019-02-25T18:16:27.012Z,67.90
2019-02-25T18:21:34.042Z,66.80
2019-02-25T18:26:41.637Z,66.50
2019-02-25T18:31:48.101Z,67.70
2019-02-25T18:36:55.716Z,68.40
2019-02-25T18:42:02.491Z,71.20
2019-02-25T18:47:08.812Z,70.70
2019-02-25T18:52:15.510Z,70.70
2019-02-25T18:57:27.405Z,73.40
